Daily Summary

Last 30 Days

Daily Data | Pacific/Honolulu
as of 2/27/21 12:23 AM HST
Date Daily Max Temp (°F) Time of Max Temp Daily Min Temp (°F) Time of Min Temp Daily Rain (In) Seasonal Rainfall (In) Wind Spd (mph) Daily Max Wind (mph) Time of Max Wind Max Wind Dir (°) Daily Solar Rad (Cal/cm2) Daily ETo (in) Dew Pt (°F) Max RH (%) Min RH (%) Max Press (inHg) Time of Max Press Min Press (inHg) Time of Min Press Bat Volt Min Day (V)
2/26/21 80.3 1435 73.5 0503 0.00 7.61 10.8 32.0 1425 ENE | 58 548 0.218 63.3 74 56 30.18 2223 30.04 1458 12.8
2/25/21 80.2 1230 74.0 0555 0.00 7.61 11.9 36.5 1750 ENE | 62 561 0.222 63.7 74 56 30.13 2341 29.99 1513 12.8
2/24/21 80.1 1353 73.2 0352 0.00 7.61 10.4 34.1 2029 ENE | 69 526 0.211 63.1 72 56 30.09 2237 29.97 1359 12.8
2/23/21 81.2 1359 74.0 0438 0.00 7.61 8.6 24.6 0841 ENE | 71 423 0.171 64.6 74 58 30.09 0001 29.96 1553 12.8
2/22/21 81.3 1300 74.0 0559 0.00 7.61 8.9 26.7 1603 NE | 34 539 0.207 64.5 75 56 30.15 0957 30.01 1602 12.8
2/21/21 81.5 1304 72.8 0141 0.01 7.61 7.0 21.5 2143 ENE | 73 433 0.160 66.8 85 62 30.15 1025 30.04 1518 12.8
2/20/21 80.7 1512 73.6 0551 0.01 7.60 6.9 22.7 0610 ENE | 71 430 0.159 66.4 80 59 30.18 1017 30.05 1445 12.8
2/19/21 82.3 1150 72.3 0017 0.07 7.59 7.1 28.8 1547 NE | 49 513 0.172 67.0 84 59 30.17 2142 30.04 0207 12.8
2/18/21 78.4 1111 72.7 0345 0.00 7.52 6.4 23.6 1112 NNE | 15 420 0.148 65.4 82 61 30.17 2054 30.05 0415 12.8
2/17/21 79.5 1332 73.8 2214 0.00 7.52 5.3 22.0 1226 NE | 34 261 0.110 65.2 76 59 30.19 0931 30.06 1653 12.7
2/16/21 81.8 1449 69.0 0559 0.00 7.52 3.6 11.4 1410 S | 185 457 0.145 67.5 89 62 30.17 0944 30.04 1546 12.8
2/15/21 81.5 1624 70.6 0119 0.00 7.52 3.5 15.2 1342 S | 187 414 0.131 68.6 92 65 30.16 2319 30.03 0421 12.7
2/14/21 82.0 1234 71.1 0714 0.00 7.52 2.7 14.0 1151 E | 97 307 0.107 68.1 92 60 30.09 2315 29.97 1449 12.8
2/13/21 80.1 1338 73.1 2039 0.00 7.52 5.1 17.1 1523 NNE | 24 412 0.143 66.3 86 62 30.08 0018 29.95 1523 12.7
2/12/21 81.2 1415 71.8 0414 0.00 7.52 4.3 17.7 0500 NE | 39 539 0.190 62.2 83 42 30.09 2237 29.99 1440 12.8
2/11/21 80.0 1230 65.8 0135 0.00 7.52 5.0 16.7 0618 ENE | 77 400 0.151 60.2 75 50 30.13 0954 30.01 1549 12.8
2/10/21 77.7 1254 66.3 0457 0.00 7.52 6.2 23.0 1432 NE | 42 511 0.182 56.4 66 49 30.13 2244 30.00 1451 12.8
2/9/21 75.3 1251 69.6 2329 0.01 7.52 7.4 27.8 1910 NE | 44 430 0.174 55.0 70 45 30.08 2248 29.93 0300 12.8
2/8/21 79.6 1338 64.5 0657 0.01 7.51 4.4 22.9 1732 WNW | 299 474 0.158 60.9 86 50 30.03 0013 29.91 1435 12.8
2/7/21 80.7 1412 62.7 0703 0.00 7.50 3.5 10.8 1752 NNE | 22 454 0.150 56.9 80 42 30.08 0959 29.97 1604 12.8
2/6/21 78.0 1514 62.1 0624 0.00 7.50 4.2 14.2 1351 SW | 224 433 0.145 57.4 86 47 30.05 2246 29.90 0316 12.8
2/5/21 77.6 1206 60.0 0647 0.00 7.50 3.8 15.6 1435 NNE | 24 456 0.145 57.0 84 46 29.95 2256 29.83 1527 12.8
2/4/21 73.9 1142 60.5 0633 0.00 7.50 3.8 15.0 2353 NE | 39 296 0.105 56.8 85 53 29.96 0938 29.83 1514 12.7
2/3/21 76.0 1004 67.2 2358 0.78 7.50 5.2 27.0 0517 S | 181 150 0.062 65.1 92 65 29.96 1040 29.79 1426 12.7
2/2/21 79.6 1242 67.2 0521 0.10 6.72 3.8 16.5 1406 S | 189 405 0.129 65.9 91 61 30.04 0935 29.92 1615 12.8
2/1/21 76.4 1230 69.9 2322 0.06 6.62 4.5 17.7 1605 E | 79 416 0.126 65.7 89 70 30.06 0947 29.94 1528 12.8
1/31/21 80.2 1408 69.8 0413 0.08 6.56 7.3 20.6 1649 NE | 37 474 0.169 63.9 86 55 30.09 1006 29.98 1512 12.8
1/30/21 79.3 1406 70.6 0520 0.08 6.48 8.1 22.6 2145 NE | 37 451 0.161 64.5 84 58 30.14 1017 30.03 1612 12.8
1/29/21 77.4 1352 69.9 0802 0.08 6.40 8.2 25.5 1100 NE | 41 363 0.135 64.2 85 60 30.14 0938 30.02 1444 12.8
1/28/21 77.7 1253 71.2 0807 0.00 6.32 9.6 32.6 0631 N | 0 472 0.178 63.0 82 56 30.15 2136 30.03 1432 12.8
Max 82.3 - 74.0 - 0.78 - 11.9 36.5 - - 561 0.222 68.6 92 70 30.19 - 30.06 - 12.8
Avg - - - - - - 6.2 - - - - - 63.2 - - - - - - -
Min 73.9 - 60.0 - 0.00 - 2.7 10.8 - - 150 0.062 55.0 66 42 29.95 - 29.79 - 12.7